Главная страница
METAR-TAF:

METAR-TAF

Аэропорты :

Karup, Дания

широта: 56-18N, долгота: 009-07E, высота над уровнем моря: 52 м

Текущие метеонаблюдения

Эта сводка был подготовлена 18 минут назад, в 18:50 UTC
Ветер 4 Узел от юго-западный
Температура 11°C
Влажность 82%
Давление 1012 hPa
Видимость 10 км и более

METAR: EKKA 131850Z AUTO 22004KT 9999 FEW025/// BKN110/// 11/08 Q1012

Время: 21:08 (19:08 UTC)

Прогноз

Эта сводка был подготовлена 2 часа и 3 минут назад, в 17:05 UTC
Прогноз действительный с 13-го 18 UTC до 14-го 18 UTC
Ветер 10 Узел от западный-юго-западный
Видимость 10 км и более
Отдельные облака на высоте 2000 фута
Рассеянная облачность на высоте 4000 фута
изменения
С 13-го 19 UTC до 13-го 22 UTC
Ветер 8 Узел от юго-юго-восточный
временами
С 14-го 03 UTC до 14-го 18 UTC
Видимость: 4000 м
Рассеянная облачность на высоте 2000 фута, мощно-кучевые.
небольшой дождь,

TAF: EKKA 131705Z 1318/1418 24010KT 9999 SCT020 BKN040 BECMG 1319/1322 15008KT TEMPO 1403/1418 4000 -RA BKN020TCU

Метеонаблюдения и прогнозы для более 4000 аэропортов (сводки METAR и TAF).

Имеющиеся станции представлены на карте желтыми и красными точками.

Чтобы увидеть название станции, наведите на нее мышь.

Затем щелкните, чтобы увидеть метеонаблюдения и метеопрогнозы.

Управление картой: чтобы увеличить масштаб, щелкните зеленые кнопки с черным крестиком; чтобы уменьшить масштаб, щелкните зеленую кнопку с тире; для просмотра соседних карт щелкайте зеленые стрелки.


METAR-TAF: